createdAt,value
2019-04-06T00:01:58.597Z,99906.56
2019-04-06T00:04:24.791Z,99899.47
2019-04-06T00:06:51.099Z,99898.47
2019-04-06T00:09:17.414Z,99896.00
2019-04-06T00:11:43.612Z,99897.28
2019-04-06T00:14:09.942Z,99892.92
2019-04-06T00:16:36.221Z,99891.99
2019-04-06T00:19:02.513Z,99891.55
2019-04-06T00:21:28.703Z,99882.11
2019-04-06T00:23:54.808Z,99887.02
2019-04-06T00:26:21.026Z,99892.80
2019-04-06T00:28:47.245Z,99893.69
2019-04-06T00:31:24.518Z,99891.02
2019-04-06T00:33:50.855Z,99894.09
2019-04-06T00:36:17.038Z,99898.47
2019-04-06T00:38:43.227Z,99890.83
2019-04-06T00:41:09.524Z,99896.78
2019-04-06T00:43:35.804Z,99895.20
2019-04-06T00:46:02.122Z,99891.17
2019-04-06T00:48:28.245Z,99892.69
2019-04-06T00:50:54.331Z,99890.20
2019-04-06T00:53:20.603Z,99893.98
2019-04-06T00:55:55.136Z,99888.50
2019-04-06T00:58:14.723Z,99890.27
2019-04-06T01:00:40.989Z,99892.39
2019-04-06T01:03:07.141Z,99890.34
2019-04-06T01:05:33.255Z,99885.47
2019-04-06T01:07:59.384Z,99884.43
2019-04-06T01:10:25.671Z,99879.44
2019-04-06T01:12:51.978Z,99875.34
2019-04-06T01:15:18.387Z,99887.94
2019-04-06T01:17:44.788Z,99881.84
2019-04-06T01:20:11.251Z,99881.41
2019-04-06T01:22:37.433Z,99885.41
2019-04-06T01:25:05.424Z,99886.46
2019-04-06T01:27:31.516Z,99882.57
2019-04-06T01:29:57.614Z,99886.48
2019-04-06T01:32:23.849Z,99889.07
2019-04-06T01:34:51.212Z,99880.48
2019-04-06T01:37:17.394Z,99884.88
2019-04-06T01:39:43.558Z,99880.42
2019-04-06T01:42:09.788Z,99883.98
2019-04-06T01:44:36.094Z,99881.48
2019-04-06T01:47:02.473Z,99874.50
2019-04-06T01:49:28.604Z,99877.38
2019-04-06T01:51:54.695Z,99873.70
2019-04-06T01:54:20.792Z,99870.22
2019-04-06T01:56:46.892Z,99880.55
2019-04-06T01:59:13.088Z,99868.74
2019-04-06T02:01:41.170Z,99862.97
2019-04-06T02:04:07.385Z,99875.80
2019-04-06T02:06:33.579Z,99868.45
2019-04-06T02:08:59.643Z,99867.39
2019-04-06T02:11:25.850Z,99865.30
2019-04-06T02:13:51.961Z,99864.92
2019-04-06T02:16:18.072Z,99860.97
2019-04-06T02:18:44.314Z,99861.73
2019-04-06T02:21:10.466Z,99860.72
2019-04-06T02:23:36.681Z,99865.59
2019-04-06T02:26:03.955Z,99864.67
2019-04-06T02:28:30.046Z,99857.81
2019-04-06T02:31:13.177Z,99865.30
2019-04-06T02:33:50.194Z,99866.28
2019-04-06T02:36:18.178Z,99866.28
2019-04-06T02:39:02.796Z,99863.56
2019-04-06T02:41:36.045Z,99864.98
2019-04-06T02:44:02.334Z,99870.48
2019-04-06T02:46:30.972Z,99864.87
2019-04-06T02:48:56.542Z,99871.11
2019-04-06T02:51:23.726Z,99870.98
2019-04-06T02:53:49.859Z,99879.05
2019-04-06T02:56:15.919Z,99868.69
2019-04-06T02:58:42.195Z,99866.91
2019-04-06T03:01:08.293Z,99867.67
2019-04-06T03:03:34.590Z,99865.23
2019-04-06T03:06:00.867Z,99867.83
2019-04-06T03:08:27.061Z,99861.66
2019-04-06T03:10:53.403Z,99851.35
2019-04-06T03:13:19.693Z,99857.44
2019-04-06T03:15:46.027Z,99857.39
2019-04-06T03:18:12.122Z,99864.73
2019-04-06T03:20:38.390Z,99861.55
2019-04-06T03:23:04.606Z,99864.50
2019-04-06T03:25:30.715Z,99869.37
2019-04-06T03:27:56.787Z,99866.09
2019-04-06T03:30:23.014Z,99870.05
2019-04-06T03:32:49.250Z,99867.32
2019-04-06T03:35:15.451Z,99862.45
2019-04-06T03:37:41.617Z,99863.33
2019-04-06T03:40:08.044Z,99868.39
2019-04-06T03:42:34.136Z,99867.58
2019-04-06T03:45:00.227Z,99866.91
2019-04-06T03:47:26.328Z,99866.04
2019-04-06T03:49:52.528Z,99867.89
2019-04-06T03:52:18.637Z,99877.13
2019-04-06T03:54:44.712Z,99873.19
2019-04-06T03:57:15.874Z,99868.69
2019-04-06T03:59:39.133Z,99864.23
2019-04-06T04:02:05.311Z,99866.23
2019-04-06T04:04:31.439Z,99872.65
2019-04-06T04:06:57.588Z,99872.33
2019-04-06T04:09:23.836Z,99868.45
2019-04-06T04:11:49.973Z,99869.32
2019-04-06T04:14:16.051Z,99876.41
2019-04-06T04:16:42.195Z,99868.61
2019-04-06T04:19:09.460Z,99871.11
2019-04-06T04:21:35.561Z,99868.01
2019-04-06T04:24:01.941Z,99869.44
2019-04-06T04:26:28.132Z,99872.03
2019-04-06T04:28:54.266Z,99866.71
2019-04-06T04:31:20.338Z,99867.63
2019-04-06T04:33:46.435Z,99871.30
2019-04-06T04:36:12.736Z,99871.47
2019-04-06T04:38:38.916Z,99874.16
2019-04-06T04:41:05.311Z,99880.86
2019-04-06T04:43:31.430Z,99878.98
2019-04-06T04:45:57.674Z,99879.05
2019-04-06T04:48:23.972Z,99879.17
2019-04-06T04:50:50.268Z,99883.20
2019-04-06T04:53:16.440Z,99888.44
2019-04-06T04:55:42.518Z,99888.44
2019-04-06T04:58:08.647Z,99888.95
2019-04-06T05:00:34.729Z,99897.20
2019-04-06T05:03:01.149Z,99896.14
2019-04-06T05:05:27.429Z,99896.22
2019-04-06T05:07:53.525Z,99896.05
2019-04-06T05:10:19.734Z,99895.84
2019-04-06T05:12:45.938Z,99897.95
2019-04-06T05:15:21.574Z,99903.20
2019-04-06T05:17:47.686Z,99895.84
2019-04-06T05:20:13.973Z,99901.40
2019-04-06T05:22:40.331Z,99901.47
2019-04-06T05:25:06.958Z,99897.09
2019-04-06T05:27:33.341Z,99901.70
2019-04-06T05:29:59.445Z,99899.50
2019-04-06T05:32:25.668Z,99910.59
2019-04-06T05:34:51.863Z,99898.32
2019-04-06T05:37:17.972Z,99904.42
2019-04-06T05:39:44.601Z,99908.00
2019-04-06T05:42:10.759Z,99903.42
2019-04-06T05:44:37.061Z,99907.27
2019-04-06T05:47:03.310Z,99898.80
2019-04-06T05:49:29.698Z,99909.86
2019-04-06T05:51:56.282Z,99903.99
2019-04-06T05:54:22.387Z,99898.77
2019-04-06T05:56:48.670Z,99908.00
2019-04-06T05:59:14.793Z,99912.39
2019-04-06T06:01:41.060Z,99919.57
2019-04-06T06:04:10.364Z,99911.83
2019-04-06T06:06:35.427Z,99917.95
2019-04-06T06:09:01.658Z,99917.19
2019-04-06T06:11:28.550Z,99921.58
2019-04-06T06:13:54.681Z,99918.22
2019-04-06T06:16:20.764Z,99914.84
2019-04-06T06:18:46.861Z,99912.89
2019-04-06T06:21:14.235Z,99919.24
2019-04-06T06:23:40.315Z,99915.60
2019-04-06T06:26:08.370Z,99919.55
2019-04-06T06:28:34.583Z,99917.00
2019-04-06T06:31:00.774Z,99908.25
2019-04-06T06:33:26.903Z,99909.31
2019-04-06T06:35:53.114Z,99908.50
2019-04-06T06:38:19.320Z,99911.28
2019-04-06T06:40:45.676Z,99907.05
2019-04-06T06:43:11.934Z,99905.84
2019-04-06T06:45:38.205Z,99905.46
2019-04-06T06:48:04.325Z,99910.55
2019-04-06T06:50:30.532Z,99913.16
2019-04-06T06:52:56.701Z,99914.89
2019-04-06T06:55:23.025Z,99918.80
2019-04-06T06:57:49.103Z,99918.41
2019-04-06T07:00:15.407Z,99912.48
2019-04-06T07:02:41.890Z,99913.92
2019-04-06T07:05:08.195Z,99916.18
2019-04-06T07:07:34.300Z,99914.36
2019-04-06T07:10:05.935Z,99917.14
2019-04-06T07:12:28.603Z,99920.47
2019-04-06T07:14:54.862Z,99916.62
2019-04-06T07:17:21.151Z,99925.33
2019-04-06T07:19:47.278Z,99925.33
2019-04-06T07:22:13.470Z,99924.55
2019-04-06T07:24:39.557Z,99921.95
2019-04-06T07:27:05.867Z,99927.92
2019-04-06T07:29:32.250Z,99925.45
2019-04-06T07:31:59.561Z,99928.74
2019-04-06T07:34:25.669Z,99932.00
2019-04-06T07:36:51.822Z,99928.45
2019-04-06T07:39:17.923Z,99929.50
2019-04-06T07:41:44.343Z,99925.64
2019-04-06T07:44:10.515Z,99924.55
2019-04-06T07:46:36.637Z,99923.50
2019-04-06T07:49:09.128Z,99928.27
2019-04-06T07:51:31.335Z,99929.61
2019-04-06T07:53:57.469Z,99923.06
2019-04-06T07:56:23.556Z,99925.87
2019-04-06T07:58:50.763Z,99922.75
2019-04-06T08:01:16.989Z,99916.36
2019-04-06T08:03:43.156Z,99918.44
2019-04-06T08:06:09.373Z,99916.63
2019-04-06T08:08:35.570Z,99925.95
2019-04-06T08:11:01.862Z,99917.61
2019-04-06T08:13:28.206Z,99916.79
2019-04-06T08:15:54.444Z,99913.91
2019-04-06T08:18:20.620Z,99916.11
2019-04-06T08:20:46.769Z,99918.69
2019-04-06T08:23:13.041Z,99915.91
2019-04-06T08:25:39.162Z,99914.82
2019-04-06T08:28:05.588Z,99918.71
2019-04-06T08:30:31.789Z,99911.25
2019-04-06T08:32:57.993Z,99919.89
2019-04-06T08:35:26.361Z,99925.14
2019-04-06T08:37:52.516Z,99917.97
2019-04-06T08:40:18.827Z,99915.12
2019-04-06T08:42:45.317Z,99920.25
2019-04-06T08:45:13.680Z,99921.61
2019-04-06T08:47:39.666Z,99920.11
2019-04-06T08:50:06.170Z,99912.12
2019-04-06T08:52:32.272Z,99915.05
2019-04-06T08:54:58.510Z,99916.11
2019-04-06T08:57:24.736Z,99916.25
2019-04-06T08:59:51.982Z,99924.30
2019-04-06T09:02:18.811Z,99918.11
2019-04-06T09:04:45.160Z,99926.80
2019-04-06T09:07:11.533Z,99921.27
2019-04-06T09:09:37.793Z,99919.92
2019-04-06T09:12:04.039Z,99917.64
2019-04-06T09:14:30.197Z,99918.00
2019-04-06T09:16:56.307Z,99916.86
2019-04-06T09:19:22.431Z,99909.63
2019-04-06T09:21:48.681Z,99919.95
2019-04-06T09:24:14.838Z,99912.73
2019-04-06T09:26:41.165Z,99914.18
2019-04-06T09:29:07.248Z,99912.05
2019-04-06T09:31:34.333Z,99901.73
2019-04-06T09:34:00.511Z,99897.37
2019-04-06T09:36:26.728Z,99904.78
2019-04-06T09:38:53.052Z,99898.34
2019-04-06T09:41:19.226Z,99900.98
2019-04-06T09:43:45.332Z,99897.50
2019-04-06T09:46:17.366Z,99891.34
2019-04-06T09:48:48.448Z,99889.19
2019-04-06T09:51:34.872Z,99893.99
2019-04-06T09:54:07.315Z,99898.35
2019-04-06T09:56:48.053Z,99892.19
2019-04-06T09:59:35.947Z,99891.33
2019-04-06T10:02:19.370Z,99893.95
2019-04-06T10:04:53.533Z,99896.51
2019-04-06T10:07:36.678Z,99892.84
2019-04-06T10:10:08.137Z,99893.91
2019-04-06T10:12:36.153Z,99899.63
2019-04-06T10:15:15.948Z,99901.75
2019-04-06T10:17:45.811Z,99903.42
2019-04-06T10:20:23.481Z,99895.52
2019-04-06T10:22:51.495Z,99891.23
2019-04-06T10:25:36.424Z,99889.09
2019-04-06T10:28:07.563Z,99895.31
2019-04-06T10:30:35.800Z,99889.61
2019-04-06T10:33:19.123Z,99888.75
2019-04-06T10:35:53.148Z,99890.52
2019-04-06T10:38:21.438Z,99887.03
2019-04-06T10:40:49.495Z,99887.03
2019-04-06T10:43:34.149Z,99876.97
2019-04-06T10:46:08.344Z,99875.09
2019-04-06T10:48:53.205Z,99873.80
2019-04-06T10:51:41.175Z,99872.88
2019-04-06T10:54:09.577Z,99875.48
2019-04-06T10:56:37.621Z,99876.55
2019-04-06T10:59:17.777Z,99876.55
2019-04-06T11:01:54.668Z,99874.72
2019-04-06T11:04:32.831Z,99874.89
2019-04-06T11:07:01.135Z,99869.04
2019-04-06T11:09:31.984Z,99874.28
2019-04-06T11:12:05.839Z,99861.92
2019-04-06T11:14:39.857Z,99859.88
2019-04-06T11:17:24.364Z,99861.80
2019-04-06T11:19:55.329Z,99860.66
2019-04-06T11:22:26.347Z,99853.27
2019-04-06T11:24:57.606Z,99859.35
2019-04-06T11:27:42.445Z,99856.82
2019-04-06T11:30:17.393Z,99844.62
2019-04-06T11:32:55.160Z,99847.56
2019-04-06T11:35:32.425Z,99858.31
2019-04-06T11:38:17.069Z,99855.27
2019-04-06T11:40:57.600Z,99848.39
2019-04-06T11:43:34.593Z,99836.80
2019-04-06T11:46:06.190Z,99841.42
2019-04-06T11:48:46.282Z,99835.52
2019-04-06T11:51:14.413Z,99836.03
2019-04-06T11:53:54.726Z,99835.75
2019-04-06T11:56:37.773Z,99838.95
2019-04-06T11:59:06.001Z,99834.09
2019-04-06T12:01:50.685Z,99833.89
2019-04-06T12:04:21.757Z,99830.97
2019-04-06T12:06:49.856Z,99831.11
2019-04-06T12:09:18.186Z,99830.58
2019-04-06T12:11:52.448Z,99827.02
2019-04-06T12:14:23.222Z,99827.94
2019-04-06T12:17:00.015Z,99821.01
2019-04-06T12:19:40.066Z,99827.94
2019-04-06T12:22:23.739Z,99819.61
2019-04-06T12:25:08.477Z,99816.81
2019-04-06T12:27:51.423Z,99814.88
2019-04-06T12:30:22.560Z,99804.04
2019-04-06T12:32:50.810Z,99802.44
2019-04-06T12:35:21.566Z,99806.80
2019-04-06T12:37:55.578Z,99798.73
2019-04-06T12:40:26.749Z,99797.28
2019-04-06T12:42:54.911Z,99803.76
2019-04-06T12:45:23.045Z,99806.14
2019-04-06T12:47:57.348Z,99803.23
2019-04-06T12:50:25.524Z,99800.30
2019-04-06T12:53:10.199Z,99795.77
2019-04-06T12:55:38.311Z,99793.89
2019-04-06T12:58:23.713Z,99785.64
2019-04-06T13:00:53.646Z,99790.97
2019-04-06T13:03:27.913Z,99786.45
2019-04-06T13:05:56.211Z,99784.11
2019-04-06T13:08:24.277Z,99782.42
2019-04-06T13:10:58.291Z,99779.69
2019-04-06T13:13:38.700Z,99779.21
2019-04-06T13:16:12.606Z,99775.73
2019-04-06T13:18:57.527Z,99769.67
2019-04-06T13:21:43.876Z,99768.86
2019-04-06T13:24:15.187Z,99768.14
2019-04-06T13:26:43.248Z,99772.70
2019-04-06T13:29:27.959Z,99768.01
2019-04-06T13:31:58.677Z,99768.62
2019-04-06T13:34:32.733Z,99768.88
2019-04-06T13:37:12.824Z,99766.62
2019-04-06T13:39:43.630Z,99762.84
2019-04-06T13:42:28.178Z,99764.59
2019-04-06T13:44:56.311Z,99753.28
2019-04-06T13:47:27.103Z,99753.05
2019-04-06T13:50:10.140Z,99744.13
2019-04-06T13:52:54.805Z,99744.86
2019-04-06T13:55:28.966Z,99750.48
2019-04-06T13:58:03.110Z,99746.68
2019-04-06T14:00:43.257Z,99742.67
2019-04-06T14:03:11.349Z,99748.56
2019-04-06T14:05:45.363Z,99742.84
2019-04-06T14:08:30.209Z,99741.31
2019-04-06T14:11:04.289Z,99738.64
2019-04-06T14:13:32.465Z,99743.66
2019-04-06T14:16:03.769Z,99748.23
2019-04-06T14:18:32.117Z,99737.16
2019-04-06T14:21:09.444Z,99733.70
2019-04-06T14:23:43.245Z,99731.03
2019-04-06T14:26:29.738Z,99733.77
2019-04-06T14:29:07.368Z,99725.52
2019-04-06T14:31:35.509Z,99731.91
2019-04-06T14:34:06.402Z,99730.03
2019-04-06T14:36:51.653Z,99726.11
2019-04-06T14:39:25.603Z,99730.42
2019-04-06T14:41:54.050Z,99726.61
2019-04-06T14:44:22.240Z,99726.80
2019-04-06T14:47:06.828Z,99722.11
2019-04-06T14:49:44.185Z,99720.88
2019-04-06T14:52:15.689Z,99717.45
2019-04-06T14:54:46.965Z,99716.59
2019-04-06T14:57:15.692Z,99723.86
2019-04-06T14:59:46.777Z,99716.03
2019-04-06T15:02:27.274Z,99720.23
2019-04-06T15:05:04.405Z,99716.67
2019-04-06T15:07:32.520Z,99722.41
2019-04-06T15:10:06.589Z,99716.12
2019-04-06T15:12:34.820Z,99713.22
2019-04-06T15:15:06.288Z,99714.86
2019-04-06T15:17:35.740Z,99710.80
2019-04-06T15:20:21.635Z,99716.02
2019-04-06T15:23:02.293Z,99711.33
2019-04-06T15:25:30.351Z,99714.37
2019-04-06T15:28:04.294Z,99707.42
2019-04-06T15:30:32.635Z,99711.42
2019-04-06T15:33:18.947Z,99709.38
2019-04-06T15:36:06.290Z,99710.73
2019-04-06T15:38:34.341Z,99704.67
2019-04-06T15:41:02.855Z,99712.53
2019-04-06T15:43:49.056Z,99705.69
2019-04-06T15:46:35.741Z,99705.60
2019-04-06T15:49:10.129Z,99702.63
2019-04-06T15:51:44.088Z,99699.16
2019-04-06T15:54:27.454Z,99696.88
2019-04-06T15:56:56.084Z,99694.60
2019-04-06T15:59:39.686Z,99693.08
2019-04-06T16:02:07.839Z,99701.86
2019-04-06T16:04:36.082Z,99698.99
2019-04-06T16:07:07.292Z,99696.08
2019-04-06T16:09:54.158Z,99697.18
2019-04-06T16:12:39.073Z,99691.66
2019-04-06T16:15:22.712Z,99687.77
2019-04-06T16:17:57.190Z,99689.32
2019-04-06T16:20:44.096Z,99690.43
2019-04-06T16:23:14.897Z,99685.88
2019-04-06T16:26:01.075Z,99685.09
2019-04-06T16:28:47.719Z,99688.17
2019-04-06T16:31:19.121Z,99687.17
2019-04-06T16:33:47.259Z,99684.81
2019-04-06T16:36:34.950Z,99685.67
2019-04-06T16:39:09.108Z,99681.77
2019-04-06T16:41:37.286Z,99687.70
2019-04-06T16:44:05.965Z,99682.91
2019-04-06T16:46:36.968Z,99683.33
2019-04-06T16:49:11.221Z,99693.36
2019-04-06T16:51:56.054Z,99693.09
2019-04-06T16:54:42.430Z,99698.83
2019-04-06T16:57:10.526Z,99697.97
2019-04-06T16:59:38.897Z,99692.85
2019-04-06T17:02:21.654Z,99706.45
2019-04-06T17:04:39.993Z,99704.56
2019-04-06T17:07:08.619Z,99698.28
2019-04-06T17:09:43.248Z,99700.70
2019-04-06T17:12:14.316Z,99705.68
2019-04-06T17:14:45.026Z,99706.29
2019-04-06T17:17:13.171Z,99703.68
2019-04-06T17:19:50.743Z,99704.02
2019-04-06T17:22:24.802Z,99701.92
2019-04-06T17:25:02.038Z,99704.52
2019-04-06T17:27:30.254Z,99714.34
2019-04-06T17:30:07.379Z,99714.72
2019-04-06T17:32:37.872Z,99710.91
2019-04-06T17:35:07.428Z,99716.75
2019-04-06T17:37:52.335Z,99722.80
2019-04-06T17:40:23.419Z,99719.79
2019-04-06T17:42:51.598Z,99718.36
2019-04-06T17:45:36.209Z,99717.45
2019-04-06T17:48:04.516Z,99728.05
2019-04-06T17:50:32.639Z,99729.47
2019-04-06T17:53:03.736Z,99727.23
2019-04-06T17:55:32.266Z,99732.12
2019-04-06T17:58:06.241Z,99732.82
2019-04-06T18:00:40.710Z,99733.48
2019-04-06T18:03:09.069Z,99734.48
2019-04-06T18:05:52.147Z,99734.55
2019-04-06T18:08:20.385Z,99732.25
2019-04-06T18:10:58.242Z,99732.83
2019-04-06T18:13:43.500Z,99736.69
2019-04-06T18:16:09.990Z,99735.89
2019-04-06T18:18:36.316Z,99740.80
2019-04-06T18:21:03.187Z,99731.14
2019-04-06T18:23:30.110Z,99738.14
2019-04-06T18:25:56.734Z,99735.22
2019-04-06T18:28:22.965Z,99738.37
2019-04-06T18:30:51.274Z,99741.41
2019-04-06T18:33:19.370Z,99742.19
2019-04-06T18:35:45.614Z,99743.05
2019-04-06T18:38:25.674Z,99744.47
2019-04-06T18:40:52.545Z,99752.31
2019-04-06T18:45:41.480Z,99743.81
2019-04-06T18:48:07.868Z,99752.73
2019-04-06T18:50:38.329Z,99745.86
2019-04-06T18:53:02.485Z,99752.11
2019-04-06T18:55:28.947Z,99755.27
2019-04-06T18:57:57.064Z,99748.58
2019-04-06T19:00:24.218Z,99751.38
2019-04-06T19:02:50.509Z,99756.63
2019-04-06T19:05:17.291Z,99754.05
2019-04-06T19:07:43.676Z,99762.33
2019-04-06T19:10:10.730Z,99762.75
2019-04-06T19:12:36.950Z,99761.17
2019-04-06T19:15:05.921Z,99756.45
2019-04-06T19:17:32.257Z,99760.45
2019-04-06T19:19:58.512Z,99757.10
2019-04-06T19:22:25.151Z,99761.03
2019-04-06T19:24:51.467Z,99761.58
2019-04-06T19:27:18.271Z,99758.54
2019-04-06T19:29:44.589Z,99765.06
2019-04-06T19:32:10.759Z,99762.50
2019-04-06T19:34:37.204Z,99767.83
2019-04-06T19:37:03.861Z,99767.89
2019-04-06T19:39:30.734Z,99765.31
2019-04-06T19:41:57.414Z,99760.16
2019-04-06T19:44:23.714Z,99764.59
2019-04-06T19:46:50.425Z,99762.39
2019-04-06T19:49:16.706Z,99763.73
2019-04-06T19:51:43.093Z,99768.12
2019-04-06T19:54:09.553Z,99759.88
2019-04-06T19:56:35.868Z,99761.69
2019-04-06T19:59:02.956Z,99767.36
2019-04-06T20:01:29.681Z,99763.89
2019-04-06T20:03:55.905Z,99756.03
2019-04-06T20:06:22.214Z,99759.52
2019-04-06T20:08:48.468Z,99760.84
2019-04-06T20:11:14.627Z,99755.17
2019-04-06T20:13:41.066Z,99757.81
2019-04-06T20:16:07.458Z,99755.20
2019-04-06T20:18:33.595Z,99753.45
2019-04-06T20:21:00.871Z,99750.41
2019-04-06T20:23:27.389Z,99750.86
2019-04-06T20:25:53.754Z,99746.45
2019-04-06T20:28:20.053Z,99749.09
2019-04-06T20:30:47.735Z,99746.42
2019-04-06T20:33:14.009Z,99750.33
2019-04-06T20:35:40.572Z,99749.49
2019-04-06T20:38:07.460Z,99749.02
2019-04-06T20:40:33.733Z,99739.01
2019-04-06T20:43:00.125Z,99742.57
2019-04-06T20:45:26.822Z,99738.62
2019-04-06T20:47:53.013Z,99741.69
2019-04-06T20:50:19.160Z,99746.08
2019-04-06T20:52:45.315Z,99747.34
2019-04-06T20:55:11.623Z,99749.15
2019-04-06T20:57:38.343Z,99750.95
2019-04-06T21:00:07.916Z,99740.05
2019-04-06T21:02:36.195Z,99745.73
2019-04-06T21:05:05.552Z,99742.23
2019-04-06T21:07:32.404Z,99739.63
2019-04-06T21:09:58.716Z,99753.98
2019-04-06T21:12:26.293Z,99735.67
2019-04-06T21:14:53.700Z,99735.67
2019-04-06T21:17:21.818Z,99735.64
2019-04-06T21:19:48.069Z,99753.00
2019-04-06T21:22:14.410Z,99742.09
2019-04-06T21:24:40.723Z,99742.80
2019-04-06T21:27:07.660Z,99742.80
2019-04-06T21:29:34.551Z,99740.17
2019-04-06T21:32:00.955Z,99741.04
2019-04-06T21:34:27.265Z,99747.55
2019-04-06T21:36:53.789Z,99738.88
2019-04-06T21:39:20.194Z,99733.65
2019-04-06T21:41:46.393Z,99742.34
2019-04-06T21:44:12.853Z,99737.57
2019-04-06T21:46:39.337Z,99737.55
2019-04-06T21:49:06.130Z,99746.08
2019-04-06T21:51:32.525Z,99737.30
2019-04-06T21:53:58.766Z,99737.73
2019-04-06T21:56:24.972Z,99740.64
2019-04-06T21:58:51.688Z,99739.80
2019-04-06T22:01:18.627Z,99741.83
2019-04-06T22:03:47.342Z,99753.05
2019-04-06T22:06:13.922Z,99746.59
2019-04-06T22:08:40.729Z,99750.11
2019-04-06T22:11:07.237Z,99743.37
2019-04-06T22:13:33.560Z,99745.27
2019-04-06T22:15:59.907Z,99747.52
2019-04-06T22:18:26.084Z,99736.23
2019-04-06T22:20:52.511Z,99732.38
2019-04-06T22:23:18.728Z,99737.65
2019-04-06T22:25:44.958Z,99740.39
2019-04-06T22:28:11.229Z,99740.23
2019-04-06T22:30:38.348Z,99732.76
2019-04-06T22:33:04.899Z,99733.55
2019-04-06T22:35:31.218Z,99736.66
2019-04-06T22:37:57.488Z,99738.93
2019-04-06T22:40:23.815Z,99733.98
2019-04-06T22:42:50.373Z,99731.75
2019-04-06T22:45:18.608Z,99735.25
2019-04-06T22:47:45.190Z,99739.39
2019-04-06T22:50:11.957Z,99734.44
2019-04-06T22:52:38.390Z,99740.10
2019-04-06T22:55:07.451Z,99734.11
2019-04-06T22:57:33.900Z,99730.38
2019-04-06T23:00:00.825Z,99727.94
2019-04-06T23:02:29.186Z,99733.82
2019-04-06T23:04:57.738Z,99734.72
2019-04-06T23:07:25.910Z,99730.30
2019-04-06T23:09:52.139Z,99732.84
2019-04-06T23:12:18.484Z,99732.81
2019-04-06T23:14:44.609Z,99731.08
2019-04-06T23:17:11.205Z,99737.78
2019-04-06T23:19:37.622Z,99734.89
2019-04-06T23:22:07.081Z,99743.48
2019-04-06T23:24:33.333Z,99741.77
2019-04-06T23:26:59.588Z,99734.77
2019-04-06T23:29:25.734Z,99740.45
2019-04-06T23:31:52.146Z,99734.28
2019-04-06T23:34:19.208Z,99737.78
2019-04-06T23:36:46.330Z,99737.28
2019-04-06T23:39:12.656Z,99737.06
2019-04-06T23:41:40.896Z,99740.50
2019-04-06T23:44:07.888Z,99733.28
2019-04-06T23:46:35.007Z,99734.22
2019-04-06T23:49:02.612Z,99734.52
2019-04-06T23:51:29.312Z,99734.22
2019-04-06T23:53:56.202Z,99730.64
2019-04-06T23:56:22.627Z,99730.12
2019-04-06T23:58:48.755Z,99734.38
